createdAt,value
2023-01-26T00:00:31.798Z,20.40
2023-01-26T00:05:37.170Z,19.40
2023-01-26T00:10:40.199Z,19.77
2023-01-26T00:15:42.184Z,18.43
2023-01-26T00:20:43.897Z,19.33
2023-01-26T00:25:45.516Z,20.33
2023-01-26T00:30:47.219Z,19.20
2023-01-26T00:35:55.588Z,20.07
2023-01-26T00:40:57.266Z,19.83
2023-01-26T00:45:58.872Z,21.10
2023-01-26T00:51:00.461Z,21.50
2023-01-26T00:56:02.058Z,23.00
2023-01-26T01:01:03.771Z,23.80
2023-01-26T01:06:05.509Z,23.37
2023-01-26T01:11:09.193Z,24.43
2023-01-26T01:16:13.512Z,23.10
2023-01-26T01:21:16.816Z,24.00
2023-01-26T01:26:18.501Z,23.93
2023-01-26T01:31:20.288Z,24.57
2023-01-26T01:36:22.068Z,25.57
2023-01-26T01:41:26.234Z,26.33
2023-01-26T01:46:32.724Z,25.50
2023-01-26T01:51:42.143Z,24.43
2023-01-26T01:56:49.951Z,24.47
2023-01-26T02:01:52.401Z,24.90
2023-01-26T02:06:57.300Z,23.80
2023-01-26T02:12:21.472Z,23.63
2023-01-26T02:17:23.637Z,23.50
2023-01-26T02:22:45.892Z,25.27
2023-01-26T02:27:49.378Z,24.97
2023-01-26T02:32:50.968Z,24.53
2023-01-26T02:37:52.822Z,25.30
2023-01-26T02:42:55.149Z,25.33
2023-01-26T02:47:57.889Z,23.60
2023-01-26T02:53:01.397Z,23.47
2023-01-26T02:58:05.686Z,22.90
2023-01-26T03:03:14.997Z,24.50
2023-01-26T03:08:16.565Z,22.50
2023-01-26T03:13:18.606Z,24.10
2023-01-26T03:18:40.770Z,23.37
2023-01-26T03:24:01.186Z,21.70
2023-01-26T03:29:03.425Z,21.20
2023-01-26T03:34:05.170Z,22.57
2023-01-26T03:39:07.463Z,22.40
2023-01-26T03:44:27.871Z,21.17
2023-01-26T03:49:49.592Z,20.87
2023-01-26T03:55:09.906Z,21.30
2023-01-26T04:00:15.045Z,21.03
2023-01-26T04:05:37.518Z,20.00
2023-01-26T04:10:39.292Z,19.90
2023-01-26T04:15:59.770Z,20.20
2023-01-26T04:21:23.713Z,18.97
2023-01-26T04:26:34.639Z,18.03
2023-01-26T04:31:38.413Z,17.07
2023-01-26T04:36:40.703Z,17.00
2023-01-26T04:41:42.612Z,17.03
2023-01-26T04:46:48.785Z,16.67
2023-01-26T04:51:51.017Z,16.03
2023-01-26T04:56:52.719Z,14.50
2023-01-26T05:01:54.289Z,14.63
2023-01-26T05:06:56.202Z,15.03
2023-01-26T05:12:20.602Z,15.77
2023-01-26T05:17:48.258Z,16.10
2023-01-26T05:23:06.875Z,15.80
2023-01-26T05:28:27.273Z,15.77
2023-01-26T05:33:30.056Z,16.90
2023-01-26T05:38:32.417Z,18.90
2023-01-26T05:43:34.197Z,18.50
2023-01-26T05:48:54.045Z,19.37
2023-01-26T05:53:55.715Z,18.30
2023-01-26T05:58:57.375Z,18.73
2023-01-26T06:03:59.184Z,16.97
2023-01-26T06:09:05.366Z,16.00
2023-01-26T06:14:07.043Z,18.60
2023-01-26T06:19:10.189Z,17.37
2023-01-26T06:24:12.844Z,18.47
2023-01-26T06:29:15.658Z,18.57
2023-01-26T06:34:17.368Z,19.30
2023-01-26T06:39:19.065Z,19.07
2023-01-26T06:44:21.073Z,18.63
2023-01-26T06:49:22.729Z,18.57
2023-01-26T06:54:24.501Z,19.93
2023-01-26T06:59:36.864Z,17.00
2023-01-26T07:04:58.671Z,18.13
2023-01-26T07:10:00.257Z,18.63
2023-01-26T07:15:02.034Z,18.53
2023-01-26T07:20:03.899Z,18.13
2023-01-26T07:25:05.984Z,19.30
2023-01-26T07:30:09.080Z,18.37
2023-01-26T07:35:10.783Z,18.03
2023-01-26T07:40:13.028Z,17.37
2023-01-26T07:45:17.737Z,16.77
2023-01-26T07:50:21.476Z,18.00
2023-01-26T07:55:26.047Z,17.40
2023-01-26T08:00:27.622Z,18.03
2023-01-26T08:05:29.468Z,18.33
2023-01-26T08:10:31.657Z,19.23
2023-01-26T08:15:33.253Z,19.20
2023-01-26T08:20:34.828Z,20.43
2023-01-26T08:25:36.372Z,18.77
2023-01-26T08:30:38.182Z,17.53
2023-01-26T08:35:39.891Z,19.40
2023-01-26T08:40:41.614Z,20.33
2023-01-26T08:45:43.201Z,18.57
2023-01-26T08:50:45.319Z,19.20
2023-01-26T08:55:46.932Z,19.33
2023-01-26T09:00:49.051Z,19.63
2023-01-26T09:05:50.710Z,19.03
2023-01-26T09:10:52.267Z,20.10
2023-01-26T09:15:53.991Z,20.73
2023-01-26T09:20:56.053Z,21.63
2023-01-26T09:25:57.611Z,20.00
2023-01-26T09:31:07.166Z,19.93
2023-01-26T09:36:10.749Z,18.93
2023-01-26T09:41:34.096Z,17.87
2023-01-26T09:46:54.492Z,18.07
2023-01-26T09:52:04.902Z,17.67
2023-01-26T09:57:15.341Z,19.93
2023-01-26T10:02:41.590Z,17.83
2023-01-26T10:07:45.339Z,18.37
2023-01-26T10:12:47.907Z,18.33
2023-01-26T10:17:50.626Z,18.07
2023-01-26T10:22:55.185Z,18.67
2023-01-26T10:27:56.817Z,19.20
2023-01-26T10:32:58.551Z,18.80
2023-01-26T10:38:00.181Z,17.63
2023-01-26T10:43:01.761Z,17.60
2023-01-26T10:48:16.783Z,17.23
2023-01-26T10:53:29.935Z,17.77
2023-01-26T10:58:50.295Z,16.80
2023-01-26T11:04:05.208Z,18.40
2023-01-26T11:09:27.076Z,18.30
2023-01-26T11:14:30.388Z,19.07
2023-01-26T11:19:50.328Z,16.63
2023-01-26T11:25:00.182Z,17.60
2023-01-26T11:30:33.335Z,18.03
2023-01-26T11:36:04.003Z,17.43
2023-01-26T11:41:19.077Z,17.83
2023-01-26T11:46:29.679Z,17.13
2023-01-26T11:52:03.557Z,18.33
2023-01-26T11:57:41.973Z,17.83
2023-01-26T12:02:51.732Z,17.07
2023-01-26T12:08:01.128Z,17.40
2023-01-26T12:13:31.988Z,17.37
2023-01-26T12:18:53.051Z,16.50
2023-01-26T12:24:03.079Z,15.73
2023-01-26T12:29:20.869Z,15.90
2023-01-26T12:34:28.946Z,14.87
2023-01-26T12:39:45.488Z,16.07
2023-01-26T12:44:52.744Z,14.80
2023-01-26T12:50:16.627Z,14.20
2023-01-26T12:55:20.199Z,14.50
2023-01-26T13:00:30.455Z,14.50
2023-01-26T13:05:36.079Z,13.70
2023-01-26T13:10:46.462Z,14.00
2023-01-26T13:15:48.126Z,12.43
2023-01-26T13:20:50.373Z,12.73
2023-01-26T13:26:15.016Z,11.23
2023-01-26T13:31:32.899Z,12.80
2023-01-26T13:36:36.875Z,12.20
2023-01-26T13:41:47.555Z,11.63
2023-01-26T13:46:54.165Z,11.93
2023-01-26T13:51:55.733Z,12.60
2023-01-26T13:57:07.492Z,11.27
2023-01-26T14:02:22.707Z,11.67
2023-01-26T14:07:38.345Z,11.37
2023-01-26T14:12:47.295Z,12.50
2023-01-26T14:17:51.685Z,11.43
2023-01-26T14:23:19.669Z,10.37
2023-01-26T14:28:22.538Z,10.97
2023-01-26T14:33:24.651Z,11.10
2023-01-26T14:38:28.821Z,10.57
2023-01-26T14:43:30.392Z,10.63
2023-01-26T14:48:37.928Z,10.87
2023-01-26T14:53:39.513Z,10.27
2023-01-26T14:58:41.451Z,10.47
2023-01-26T15:03:43.023Z,10.10
2023-01-26T15:08:55.386Z,10.03
2023-01-26T15:13:57.056Z,10.57
2023-01-26T15:19:09.245Z,10.67
2023-01-26T15:24:13.985Z,10.33
2023-01-26T15:29:32.594Z,10.23
2023-01-26T15:34:38.823Z,10.83
2023-01-26T15:39:40.364Z,10.43
2023-01-26T15:44:42.411Z,10.57
2023-01-26T15:49:44.094Z,10.17
2023-01-26T15:54:45.676Z,10.50
2023-01-26T15:59:47.349Z,10.87
2023-01-26T16:04:48.995Z,9.80
2023-01-26T16:09:51.843Z,10.80
2023-01-26T16:14:53.399Z,11.43
2023-01-26T16:19:55.063Z,11.00
2023-01-26T16:24:56.632Z,10.20
2023-01-26T16:29:58.301Z,10.70
2023-01-26T16:35:00.032Z,10.87
2023-01-26T16:40:01.625Z,10.70
2023-01-26T16:45:03.497Z,11.43
2023-01-26T16:50:05.333Z,11.30
2023-01-26T16:55:12.636Z,11.07
2023-01-26T17:00:16.661Z,11.90
2023-01-26T17:05:21.056Z,9.87
2023-01-26T17:10:24.065Z,9.90
2023-01-26T17:15:25.724Z,10.93
2023-01-26T17:20:27.333Z,11.77
2023-01-26T17:25:28.896Z,11.50
2023-01-26T17:30:30.552Z,11.43
2023-01-26T17:35:32.295Z,11.00
2023-01-26T17:40:35.210Z,10.37
2023-01-26T17:45:36.837Z,10.63
2023-01-26T17:50:38.433Z,9.93
2023-01-26T17:55:40.000Z,9.80
2023-01-26T18:00:42.098Z,8.07
2023-01-26T18:05:51.785Z,8.43
2023-01-26T18:11:04.118Z,9.37
2023-01-26T18:16:07.033Z,8.60
2023-01-26T18:21:11.713Z,9.33
2023-01-26T18:26:14.062Z,8.80
2023-01-26T18:31:19.101Z,8.43
2023-01-26T18:36:21.236Z,8.30
2023-01-26T18:41:23.842Z,9.03
2023-01-26T18:46:27.150Z,10.10
2023-01-26T18:51:30.755Z,10.97
2023-01-26T18:56:32.504Z,12.63
2023-01-26T19:01:34.367Z,11.13
2023-01-26T19:06:36.322Z,11.50
2023-01-26T19:11:38.942Z,11.77
2023-01-26T19:16:42.228Z,12.27
2023-01-26T19:21:43.857Z,12.23
2023-01-26T19:26:45.455Z,10.90
2023-01-26T19:31:47.121Z,10.87
2023-01-26T19:36:48.918Z,11.60
2023-01-26T19:41:50.699Z,11.07
2023-01-26T19:46:53.545Z,12.47
2023-01-26T19:51:55.492Z,11.77
2023-01-26T19:56:57.182Z,11.93
2023-01-26T20:01:58.862Z,10.20
2023-01-26T20:07:02.085Z,11.10
2023-01-26T20:12:06.099Z,11.53
2023-01-26T20:17:07.927Z,11.93
2023-01-26T20:22:09.561Z,11.37
2023-01-26T20:27:11.150Z,10.37
2023-01-26T20:32:13.794Z,10.80
2023-01-26T20:37:15.548Z,10.57
2023-01-26T20:42:18.818Z,10.60
2023-01-26T20:47:22.433Z,10.87
2023-01-26T20:52:25.014Z,10.40
2023-01-26T20:57:26.669Z,11.07
2023-01-26T21:02:28.425Z,9.50
2023-01-26T21:07:30.053Z,9.83
2023-01-26T21:12:33.969Z,10.40
2023-01-26T21:17:35.537Z,9.33
2023-01-26T21:22:37.218Z,10.20
2023-01-26T21:27:38.930Z,11.47
2023-01-26T21:32:40.499Z,13.30
2023-01-26T21:37:42.126Z,12.87
2023-01-26T21:42:43.675Z,13.70
2023-01-26T21:48:05.246Z,13.63
2023-01-26T21:53:06.826Z,14.60
2023-01-26T21:58:27.352Z,13.63
2023-01-26T22:03:33.123Z,13.27
2023-01-26T22:08:35.465Z,13.27
2023-01-26T22:13:38.039Z,13.30
2023-01-26T22:18:40.449Z,13.67
2023-01-26T22:23:42.387Z,12.63
2023-01-26T22:28:49.988Z,12.30
2023-01-26T22:33:53.049Z,12.33
2023-01-26T22:38:54.745Z,11.77
2023-01-26T22:43:58.065Z,12.33
2023-01-26T22:48:59.970Z,12.73
2023-01-26T22:54:01.635Z,13.37
2023-01-26T22:59:03.305Z,13.33
2023-01-26T23:04:04.966Z,12.50
2023-01-26T23:09:06.581Z,13.23
2023-01-26T23:14:08.301Z,12.97
2023-01-26T23:19:09.936Z,12.07
2023-01-26T23:24:11.593Z,12.63
2023-01-26T23:29:13.249Z,13.43
2023-01-26T23:34:14.860Z,12.33
2023-01-26T23:39:16.480Z,10.60
2023-01-26T23:44:18.061Z,12.23
2023-01-26T23:49:19.640Z,11.93
2023-01-26T23:54:21.249Z,10.70
2023-01-26T23:59:23.020Z,11.27
